createdAt,value
2019-05-01T00:00:01.072Z,100.00
2019-05-01T00:05:01.091Z,100.00
2019-05-01T00:10:01.559Z,100.00
2019-05-01T00:15:01.573Z,100.00
2019-05-01T00:20:01.104Z,100.00
2019-05-01T00:25:01.431Z,100.00
2019-05-01T00:30:01.090Z,100.00
2019-05-01T00:35:01.063Z,100.00
2019-05-01T00:40:01.097Z,100.00
2019-05-01T00:45:01.064Z,100.00
2019-05-01T00:50:01.050Z,100.00
2019-05-01T00:55:01.049Z,100.00
2019-05-01T01:00:01.242Z,100.00
2019-05-01T01:05:01.386Z,100.00
2019-05-01T01:10:01.060Z,100.00
2019-05-01T01:15:01.102Z,100.00
2019-05-01T01:20:01.564Z,100.00
2019-05-01T01:25:01.089Z,100.00
2019-05-01T01:30:01.059Z,100.00
2019-05-01T01:35:01.071Z,100.00
2019-05-01T01:40:01.051Z,100.00
2019-05-01T01:45:01.514Z,100.00
2019-05-01T01:50:01.071Z,100.00
2019-05-01T01:55:01.113Z,100.00
2019-05-01T02:00:01.128Z,100.00
2019-05-01T02:05:01.042Z,100.00
2019-05-01T02:10:01.164Z,100.00
2019-05-01T02:15:01.073Z,100.00
2019-05-01T02:20:01.164Z,100.00
2019-05-01T02:25:01.054Z,100.00
2019-05-01T02:30:01.191Z,100.00
2019-05-01T02:35:01.084Z,100.00
2019-05-01T02:40:01.259Z,100.00
2019-05-01T02:45:01.056Z,100.00
2019-05-01T02:50:01.082Z,100.00
2019-05-01T02:55:01.067Z,100.00
2019-05-01T03:00:01.196Z,100.00
2019-05-01T03:05:01.031Z,100.00
2019-05-01T03:10:01.089Z,100.00
2019-05-01T03:15:01.082Z,100.00
2019-05-01T03:20:01.065Z,100.00
2019-05-01T03:25:01.313Z,100.00
2019-05-01T03:30:01.071Z,100.00
2019-05-01T03:35:01.137Z,100.00
2019-05-01T03:40:01.066Z,100.00
2019-05-01T03:45:01.484Z,100.00
2019-05-01T03:50:01.035Z,100.00
2019-05-01T03:55:01.323Z,100.00
2019-05-01T04:00:01.045Z,100.00
2019-05-01T05:35:01.087Z,100.00
2019-05-01T05:40:01.072Z,100.00
2019-05-01T05:45:01.383Z,100.00
2019-05-01T05:50:01.531Z,100.00
2019-05-01T05:55:01.569Z,100.00
2019-05-01T06:00:01.116Z,100.00
2019-05-01T06:05:01.151Z,100.00
2019-05-01T06:10:01.085Z,100.00
2019-05-01T06:15:02.394Z,100.00
2019-05-01T06:20:01.082Z,100.00
2019-05-01T06:25:01.100Z,100.00
2019-05-01T06:30:01.363Z,100.00
2019-05-01T06:35:03.070Z,100.00
2019-05-01T06:40:01.106Z,100.00
2019-05-01T06:45:01.118Z,100.00
2019-05-01T06:50:05.778Z,100.00
2019-05-01T06:55:01.062Z,100.00
2019-05-01T07:00:03.344Z,100.00
2019-05-01T07:05:01.113Z,100.00
2019-05-01T07:10:01.056Z,100.00
2019-05-01T07:15:01.085Z,100.00
2019-05-01T07:20:01.369Z,100.00
2019-05-01T07:25:04.142Z,100.00
2019-05-01T07:30:01.070Z,95.35
2019-05-01T07:35:02.007Z,100.00
2019-05-01T07:40:01.081Z,91.21
2019-05-01T07:45:03.841Z,100.00
2019-05-01T07:50:01.068Z,71.00
2019-05-01T07:55:01.106Z,93.74
2019-05-01T08:00:03.612Z,72.10
2019-05-01T08:05:04.908Z,66.80
2019-05-01T08:10:01.103Z,59.24
2019-05-01T08:15:01.057Z,49.40
2019-05-01T08:20:01.126Z,45.12
2019-05-01T08:25:01.087Z,43.79
2019-05-01T08:30:01.110Z,44.51
2019-05-01T08:35:02.437Z,46.70
2019-05-01T08:40:01.092Z,46.51
2019-05-01T08:45:05.194Z,40.83
2019-05-01T08:50:01.111Z,40.56
2019-05-01T08:55:04.365Z,41.44
2019-05-01T09:00:01.691Z,38.91
2019-05-01T09:05:02.558Z,39.85
2019-05-01T09:10:01.676Z,37.65
2019-05-01T09:15:01.223Z,33.93
2019-05-01T09:20:01.091Z,34.27
2019-05-01T09:25:01.873Z,34.03
2019-05-01T09:30:02.894Z,38.10
2019-05-01T09:35:01.079Z,34.18
2019-05-01T09:40:04.162Z,33.31
2019-05-01T09:45:02.107Z,34.04
2019-05-01T09:50:01.249Z,34.35
2019-05-01T09:55:01.283Z,34.96
2019-05-01T10:00:01.258Z,31.70
2019-05-01T10:05:02.073Z,31.18
2019-05-01T10:10:01.087Z,32.90
2019-05-01T10:15:01.152Z,31.25
2019-05-01T10:20:01.112Z,31.97
2019-05-01T10:25:01.335Z,30.21
2019-05-01T10:30:01.728Z,30.79
2019-05-01T10:35:01.103Z,26.67
2019-05-01T10:40:01.100Z,27.51
2019-05-01T10:45:01.102Z,32.74
2019-05-01T10:50:01.093Z,27.14
2019-05-01T10:55:01.113Z,28.16
2019-05-01T11:00:01.114Z,30.25
2019-05-01T11:05:01.093Z,28.76
2019-05-01T11:10:01.096Z,29.02
2019-05-01T11:15:01.142Z,29.07
2019-05-01T11:20:01.477Z,27.16
2019-05-01T11:25:01.163Z,27.51
2019-05-01T11:30:01.447Z,30.07
2019-05-01T11:35:03.872Z,27.19
2019-05-01T11:40:01.099Z,29.23
2019-05-01T11:45:01.089Z,26.57
2019-05-01T11:50:01.485Z,28.31
2019-05-01T11:55:01.403Z,28.95
2019-05-01T12:00:01.143Z,28.21
2019-05-01T12:05:01.077Z,29.66
2019-05-01T12:10:01.067Z,33.08
2019-05-01T12:15:01.101Z,28.33
2019-05-01T12:20:01.433Z,27.77
2019-05-01T12:25:01.294Z,28.45
2019-05-01T12:30:01.085Z,31.17
2019-05-01T12:35:01.100Z,30.23
2019-05-01T12:40:01.112Z,32.03
2019-05-01T12:45:01.076Z,27.90
2019-05-01T12:50:01.067Z,25.01
2019-05-01T12:55:01.155Z,25.67
2019-05-01T13:00:08.406Z,27.06
2019-05-01T13:05:01.085Z,26.79
2019-05-01T13:10:01.109Z,24.84
2019-05-01T13:15:01.521Z,26.70
2019-05-01T13:20:01.076Z,26.08
2019-05-01T13:25:01.066Z,30.04
2019-05-01T13:30:07.217Z,28.79
2019-05-01T13:35:01.085Z,31.00
2019-05-01T13:40:01.447Z,29.37
2019-05-01T13:45:01.103Z,30.62
2019-05-01T13:50:01.070Z,30.20
2019-05-01T13:55:01.114Z,28.96
2019-05-01T14:00:01.072Z,28.42
2019-05-01T14:05:01.405Z,27.57
2019-05-01T14:10:01.463Z,28.37
2019-05-01T14:15:01.081Z,26.77
2019-05-01T14:20:01.117Z,29.04
2019-05-01T14:25:01.110Z,29.51
2019-05-01T14:30:01.130Z,28.35
2019-05-01T14:35:01.429Z,30.05
2019-05-01T14:40:01.066Z,27.47
2019-05-01T14:45:01.077Z,29.24
2019-05-01T14:50:01.083Z,29.82
2019-05-01T14:55:01.086Z,30.51
2019-05-01T15:00:01.093Z,28.87
2019-05-01T15:05:01.594Z,30.75
2019-05-01T15:10:01.118Z,30.68
2019-05-01T15:15:01.061Z,30.38
2019-05-01T15:20:01.442Z,32.02
2019-05-01T15:25:01.072Z,31.37
2019-05-01T15:30:01.094Z,29.76
2019-05-01T15:35:01.066Z,29.76
2019-05-01T15:40:01.106Z,29.21
2019-05-01T15:45:01.429Z,30.78
2019-05-01T15:50:01.095Z,31.06
2019-05-01T15:55:01.442Z,30.45
2019-05-01T16:00:01.094Z,31.45
2019-05-01T16:05:01.143Z,29.85
2019-05-01T16:10:01.081Z,31.72
2019-05-01T16:15:01.103Z,30.80
2019-05-01T16:20:01.101Z,33.46
2019-05-01T16:25:01.090Z,32.13
2019-05-01T16:30:01.461Z,33.18
2019-05-01T16:35:01.130Z,33.60
2019-05-01T16:40:01.088Z,36.39
2019-05-01T16:45:01.095Z,36.51
2019-05-01T16:50:01.056Z,36.83
2019-05-01T16:55:01.076Z,37.68
2019-05-01T17:00:01.083Z,37.83
2019-05-01T17:05:01.061Z,38.31
2019-05-01T17:10:01.480Z,38.92
2019-05-01T17:15:01.162Z,36.94
2019-05-01T17:20:01.564Z,38.58
2019-05-01T17:25:01.301Z,39.05
2019-05-01T17:30:01.162Z,39.78
2019-05-01T17:35:02.052Z,41.14
2019-05-01T17:40:01.089Z,39.47
2019-05-01T17:45:01.093Z,39.71
2019-05-01T17:50:01.235Z,41.28
2019-05-01T17:55:01.535Z,39.19
2019-05-01T18:00:01.077Z,41.17
2019-05-01T18:05:01.192Z,42.52
2019-05-01T18:10:01.660Z,40.79
2019-05-01T18:15:01.067Z,44.10
2019-05-01T18:20:01.122Z,46.57
2019-05-01T18:25:01.148Z,45.56
2019-05-01T18:30:01.669Z,50.99
2019-05-01T18:35:01.136Z,53.91
2019-05-01T18:40:01.116Z,58.12
2019-05-01T18:45:02.525Z,63.02
2019-05-01T18:50:01.079Z,61.46
2019-05-01T18:55:01.124Z,66.29
2019-05-01T19:00:01.546Z,70.65
2019-05-01T19:05:04.063Z,78.49
2019-05-01T19:10:01.106Z,87.60
2019-05-01T19:15:05.406Z,84.76
2019-05-01T19:20:01.255Z,90.31
2019-05-01T19:25:01.137Z,86.05
2019-05-01T19:30:01.450Z,96.84
2019-05-01T19:35:01.905Z,100.00
2019-05-01T19:40:01.166Z,100.00
2019-05-01T19:45:01.152Z,100.00
2019-05-01T19:50:06.717Z,100.00
2019-05-01T19:55:05.876Z,100.00
2019-05-01T20:00:01.240Z,100.00
2019-05-01T20:05:01.151Z,100.00
2019-05-01T20:10:01.169Z,100.00
2019-05-01T20:15:01.127Z,100.00
2019-05-01T20:20:01.190Z,100.00
2019-05-01T20:25:01.135Z,100.00
2019-05-01T20:30:01.132Z,100.00
2019-05-01T20:35:01.066Z,100.00
2019-05-01T20:40:10.865Z,100.00
2019-05-01T20:45:05.318Z,100.00
2019-05-01T20:50:01.151Z,100.00
2019-05-01T20:55:01.077Z,100.00
2019-05-01T21:00:01.089Z,100.00
2019-05-01T21:05:01.080Z,100.00
2019-05-01T21:10:01.076Z,100.00
2019-05-01T21:15:01.187Z,100.00
2019-05-01T21:20:03.648Z,100.00
2019-05-01T21:25:01.089Z,100.00
2019-05-01T21:30:01.078Z,100.00
2019-05-01T21:35:01.084Z,100.00
2019-05-01T21:40:02.743Z,100.00
2019-05-01T21:45:01.108Z,100.00
2019-05-01T21:50:03.113Z,100.00
2019-05-01T21:55:01.095Z,100.00
2019-05-01T22:00:01.105Z,100.00
2019-05-01T22:05:03.814Z,100.00
2019-05-01T22:10:01.081Z,100.00
2019-05-01T22:15:01.074Z,100.00
2019-05-01T22:20:01.077Z,100.00
2019-05-01T22:25:01.069Z,100.00
2019-05-01T22:30:05.733Z,100.00
2019-05-01T22:35:01.073Z,100.00
2019-05-01T22:40:01.100Z,100.00
2019-05-01T22:45:01.082Z,100.00
2019-05-01T22:50:01.104Z,100.00
2019-05-01T22:55:01.058Z,100.00
2019-05-01T23:00:01.095Z,100.00
2019-05-01T23:05:01.104Z,100.00
2019-05-01T23:10:03.325Z,100.00
2019-05-01T23:15:01.097Z,100.00
2019-05-01T23:20:04.092Z,100.00
2019-05-01T23:25:01.054Z,100.00
2019-05-01T23:30:01.079Z,100.00
2019-05-01T23:35:01.068Z,100.00
2019-05-01T23:40:01.344Z,100.00
2019-05-01T23:45:01.058Z,100.00
2019-05-01T23:50:01.065Z,100.00
2019-05-01T23:55:01.059Z,100.00
